Loading...
Florence Airport, Peretola (Amerigo Vespucci Airport)

LIRQ

Code AITA: FLR

Florence, Tuscany, Italy

19.0°

Rosée: 14.0

Vitesse du vent

6 kt

Direction: 110° /

Altimètre

30 Hg

QNH : 1016

LIRQ 211120Z 11006KT 9999 FEW035 BKN060 19/14 Q1016


Florence Airport, Peretola (Amerigo Vespucci Airport)

Élévation

33.0 mètres

Ville

Localisation

Toscana

Pays

Italy

Nouvelle recherche